Flight Track Log - Related Links

Times and Time Zones

All times are in EDT time to prevent confusion due to time zone crossing. See the LBQ792 flight status page for this flight to view local times or setup timezone preferences in your user account.

Time Position Orientation Groundspeed Altitude Reporting Facility
EDT Latitude Longitude Course Direction KTS MPH feet Rate Location/Type
Wed 11:20:41 PM 43.1000 -78.9000 180° South 139 160 2,500  Level Buffalo TRACON
Wed 11:21:41 PM 43.0667 -78.9167 200° South 163 188 3,900 1,403 Climbing Buffalo TRACON
Wed 11:22:45 PM 43.0092 -78.9308 190° South 173 199 5,400 1,452 Climbing Cleveland Center
Wed 11:23:45 PM 42.9675 -78.9406 190° South 181 208 6,900 1,650 Climbing Cleveland Center
Wed 11:24:45 PM 42.9156 -78.9503 188° South 176 203 8,700 1,450 Climbing Cleveland Center
Wed 11:25:45 PM 42.8822 -78.9597 192° South 176 203 9,800 1,200 Climbing Cleveland Center
Wed 11:26:45 PM 42.8283 -78.9694 188° South 176 203 11,100 1,300 Climbing Cleveland Center
Wed 11:27:45 PM 42.7783 -78.9794 188° South 182 209 12,400 1,300 Climbing Cleveland Center
Wed 11:28:45 PM 42.7244 -78.9919 190° South 187 215 13,700 1,250 Climbing Cleveland Center
Wed 11:29:45 PM 42.6703 -79.0075 192° South 187 215 14,900 1,150 Climbing Cleveland Center
Wed 11:30:45 PM 42.6122 -79.0231 191° South 198 228 16,000 1,050 Climbing Cleveland Center
Wed 11:31:45 PM 42.5542 -79.0358 189° South 211 243 17,000 1,050 Climbing Cleveland Center
Wed 11:32:45 PM 42.4917 -79.0486 189° South 222 255 18,100 1,150 Climbing Cleveland Center
Wed 11:33:45 PM 42.4253 -79.0672 192° South 229 264 19,300 950 Climbing Cleveland Center
Wed 11:34:45 PM 42.3650 -79.0908 196° South 229 264 20,000 300 Climbing Cleveland Center
Wed 11:35:45 PM 42.2967 -79.1150 195° South 234 269 19,900  Descending Cleveland Center
Wed 11:36:45 PM 42.2283 -79.1419 196° South 252 290 20,000 50 Climbing Cleveland Center
Wed 11:37:45 PM 42.1556 -79.1658 194° South 264 304 20,000 -50 Level Cleveland Center
Wed 11:38:45 PM 42.0828 -79.1900 194° South 269 310 19,900  Descending Cleveland Center
Wed 11:39:45 PM 42.0081 -79.2167 195° South 274 315 20,000 50 Climbing Cleveland Center
Wed 11:40:45 PM 41.9333 -79.2433 195° South 274 315 20,000  Level Cleveland Center
Wed 11:41:45 PM 41.8692 -79.2669 195° South 279 321 20,000  Level Cleveland Center
Wed 11:42:45 PM 41.7861 -79.2939 194° South 279 321 20,000  Level Cleveland Center
Wed 11:43:45 PM 41.7194 -79.3175 195° South 279 321 20,000  Level Cleveland Center
Wed 11:44:45 PM 41.6447 -79.3439 195° South 279 321 20,000  Level Cleveland Center
Wed 11:45:45 PM 41.5700 -79.3703 195° South 279 321 20,000  Level Cleveland Center
Wed 11:46:45 PM 41.4953 -79.3939 193° South 279 321 20,000  Level Cleveland Center
Wed 11:47:45 PM 41.4225 -79.4200 195° South 279 321 20,000  Level Cleveland Center
Wed 11:48:45 PM 41.3414 -79.4492 195° South 279 321 20,000 -50 Level Cleveland Center
Wed 11:49:45 PM 41.2667 -79.4753 195° South 279 321 19,900 -800 Descending Cleveland Center
Wed 11:50:45 PM 41.1878 -79.5044 196° South 279 321 18,400 -1,500 Descending Cleveland Center
Wed 11:51:45 PM 41.1047 -79.5306 193° South 296 341 16,900 -1,500 Descending Cleveland Center
Wed 11:52:45 PM 41.0214 -79.5567 193° South 303 349 15,400 -1,450 Descending Cleveland Center
Wed 11:53:45 PM 40.9383 -79.5853 195° South 308 354 14,000 -1,450 Descending Cleveland Center
Wed 11:54:45 PM 40.8572 -79.6142 195° South 308 354 12,500 -1,500 Descending Cleveland Center
Wed 11:55:45 PM 40.7803 -79.6397 194° South 303 349 11,000 -1,500 Descending Cleveland Center
Wed 11:56:45 PM 40.7056 -79.6656 195° South 292 336 9,500 -1,600 Descending Cleveland Center
Wed 11:57:45 PM 40.6328 -79.6911 195° South 281 323 7,800 -1,650 Descending Cleveland Center
Wed 11:58:45 PM 40.5642 -79.7194 197° South 268 308 6,200 -1,650 Descending Cleveland Center
Wed 11:59:45 PM 40.5019 -79.7667 210° Southwest 262 302 4,500 -1,700 Descending Cleveland Center
Thu 12:01:00 AM 40.4394 -79.8361 201° Southwest  Level Estimated
Thu 12:08:00 AM 40.3500 -79.9167 270° West  Level FlightAware Approximate
Thu 12:09:00 AM 40.3544 -79.9302 270° West  Level Estimated
Thu 12:10:00 AM 40.3544 -79.9302 270° West  Level Estimated
Thu 12:11:00 AM 40.3544 -79.9302 270° West  Level Estimated

Login

Don't have an account? Register now (free) for customized features, flight alerts, and more!